sensor_id;sensor_type;location;lat;lon;timestamp;temperature;humidity
9095;DHT22;4583;49.796;9.902;2023-06-22T00:06:56;22.20;99.90
9095;DHT22;4583;49.796;9.902;2023-06-22T00:16:58;22.20;99.90
9095;DHT22;4583;49.796;9.902;2023-06-22T00:27:00;22.30;99.90
9095;DHT22;4583;49.796;9.902;2023-06-22T00:37:02;22.20;99.90
9095;DHT22;4583;49.796;9.902;2023-06-22T00:47:04;22.20;99.90
9095;DHT22;4583;49.796;9.902;2023-06-22T00:57:06;22.20;99.90
9095;DHT22;4583;49.796;9.902;2023-06-22T01:07:39;22.20;99.90
9095;DHT22;4583;49.796;9.902;2023-06-22T01:17:44;22.10;99.90
9095;DHT22;4583;49.796;9.902;2023-06-22T01:28:17;21.90;99.90
9095;DHT22;4583;49.796;9.902;2023-06-22T01:38:21;22.00;99.90
9095;DHT22;4583;49.796;9.902;2023-06-22T01:48:24;22.10;99.90
9095;DHT22;4583;49.796;9.902;2023-06-22T01:58:28;22.00;99.90
9095;DHT22;4583;49.796;9.902;2023-06-22T02:08:35;21.90;99.90
9095;DHT22;4583;49.796;9.902;2023-06-22T02:18:37;22.10;99.90
9095;DHT22;4583;49.796;9.902;2023-06-22T02:28:41;22.00;99.90
9095;DHT22;4583;49.796;9.902;2023-06-22T02:38:43;21.80;99.90
9095;DHT22;4583;49.796;9.902;2023-06-22T02:48:50;21.90;99.90
9095;DHT22;4583;49.796;9.902;2023-06-22T02:58:51;21.90;99.90
9095;DHT22;4583;49.796;9.902;2023-06-22T03:08:58;21.90;99.90
9095;DHT22;4583;49.796;9.902;2023-06-22T03:19:00;22.00;99.90
9095;DHT22;4583;49.796;9.902;2023-06-22T03:29:02;22.00;99.90
9095;DHT22;4583;49.796;9.902;2023-06-22T03:39:03;22.00;99.90
9095;DHT22;4583;49.796;9.902;2023-06-22T03:49:05;22.00;99.90
9095;DHT22;4583;49.796;9.902;2023-06-22T03:59:07;22.00;99.90
9095;DHT22;4583;49.796;9.902;2023-06-22T04:09:09;22.00;99.90
9095;DHT22;4583;49.796;9.902;2023-06-22T04:19:10;22.10;99.90
9095;DHT22;4583;49.796;9.902;2023-06-22T04:29:17;22.20;99.90
9095;DHT22;4583;49.796;9.902;2023-06-22T04:39:19;22.20;99.90
9095;DHT22;4583;49.796;9.902;2023-06-22T04:49:21;22.20;99.90
9095;DHT22;4583;49.796;9.902;2023-06-22T04:59:24;22.40;99.90
9095;DHT22;4583;49.796;9.902;2023-06-22T05:09:31;22.50;99.90
9095;DHT22;4583;49.796;9.902;2023-06-22T05:19:35;22.70;99.90
9095;DHT22;4583;49.796;9.902;2023-06-22T05:29:37;22.80;99.90
9095;DHT22;4583;49.796;9.902;2023-06-22T05:39:39;23.20;99.90
9095;DHT22;4583;49.796;9.902;2023-06-22T05:49:41;23.20;99.90
9095;DHT22;4583;49.796;9.902;2023-06-22T05:59:42;23.50;99.90
9095;DHT22;4583;49.796;9.902;2023-06-22T06:09:44;23.70;99.90
9095;DHT22;4583;49.796;9.902;2023-06-22T06:19:46;23.90;99.90
9095;DHT22;4583;49.796;9.902;2023-06-22T06:29:47;24.10;99.90
9095;DHT22;4583;49.796;9.902;2023-06-22T06:39:50;24.20;99.90
9095;DHT22;4583;49.796;9.902;2023-06-22T06:49:52;24.30;99.90
9095;DHT22;4583;49.796;9.902;2023-06-22T06:59:54;24.60;99.90
9095;DHT22;4583;49.796;9.902;2023-06-22T07:09:56;24.80;99.90
9095;DHT22;4583;49.796;9.902;2023-06-22T07:19:58;25.10;99.90
9095;DHT22;4583;49.796;9.902;2023-06-22T07:30:00;25.40;99.90
9095;DHT22;4583;49.796;9.902;2023-06-22T07:40:02;25.50;99.90
9095;DHT22;4583;49.796;9.902;2023-06-22T07:50:08;25.70;99.50
9095;DHT22;4583;49.796;9.902;2023-06-22T08:00:10;26.00;98.70
9095;DHT22;4583;49.796;9.902;2023-06-22T08:10:17;26.30;98.00
9095;DHT22;4583;49.796;9.902;2023-06-22T08:20:18;26.50;97.10
9095;DHT22;4583;49.796;9.902;2023-06-22T08:30:20;26.70;96.60
9095;DHT22;4583;49.796;9.902;2023-06-22T08:40:22;26.70;95.80
9095;DHT22;4583;49.796;9.902;2023-06-22T08:50:24;27.00;95.30
9095;DHT22;4583;49.796;9.902;2023-06-22T09:00:26;27.30;94.70
9095;DHT22;4583;49.796;9.902;2023-06-22T09:10:28;27.40;93.90
9095;DHT22;4583;49.796;9.902;2023-06-22T09:20:30;27.60;92.40
9095;DHT22;4583;49.796;9.902;2023-06-22T09:30:33;27.80;91.20
9095;DHT22;4583;49.796;9.902;2023-06-22T09:40:34;28.00;90.20
9095;DHT22;4583;49.796;9.902;2023-06-22T09:50:41;28.20;88.70
9095;DHT22;4583;49.796;9.902;2023-06-22T10:00:43;28.40;86.90
9095;DHT22;4583;49.796;9.902;2023-06-22T10:10:44;28.60;85.20
9095;DHT22;4583;49.796;9.902;2023-06-22T10:20:50;28.80;83.30
9095;DHT22;4583;49.796;9.902;2023-06-22T10:30:55;28.80;82.00
9095;DHT22;4583;49.796;9.902;2023-06-22T10:40:57;29.10;79.60
9095;DHT22;4583;49.796;9.902;2023-06-22T10:51:00;29.10;78.90
9095;DHT22;4583;49.796;9.902;2023-06-22T11:01:01;29.30;77.60
9095;DHT22;4583;49.796;9.902;2023-06-22T11:11:04;29.40;75.70
9095;DHT22;4583;49.796;9.902;2023-06-22T11:21:06;29.60;74.30
9095;DHT22;4583;49.796;9.902;2023-06-22T11:31:08;30.10;71.90
9095;DHT22;4583;49.796;9.902;2023-06-22T11:41:27;30.60;69.10
9095;DHT22;4583;49.796;9.902;2023-06-22T11:51:29;30.70;67.90
9095;DHT22;4583;49.796;9.902;2023-06-22T12:01:33;30.80;66.50
9095;DHT22;4583;49.796;9.902;2023-06-22T12:11:34;31.30;65.00
9095;DHT22;4583;49.796;9.902;2023-06-22T12:21:37;31.70;63.30
9095;DHT22;4583;49.796;9.902;2023-06-22T12:31:39;31.70;62.40
9095;DHT22;4583;49.796;9.902;2023-06-22T12:41:41;31.80;61.50
9095;DHT22;4583;49.796;9.902;2023-06-22T12:51:44;32.00;60.50
9095;DHT22;4583;49.796;9.902;2023-06-22T13:01:46;31.80;60.70
9095;DHT22;4583;49.796;9.902;2023-06-22T13:11:48;31.00;62.60
9095;DHT22;4583;49.796;9.902;2023-06-22T13:21:50;30.50;64.50
9095;DHT22;4583;49.796;9.902;2023-06-22T13:31:51;30.40;64.80
9095;DHT22;4583;49.796;9.902;2023-06-22T13:41:53;30.20;65.00
9095;DHT22;4583;49.796;9.902;2023-06-22T13:51:55;30.10;65.50
9095;DHT22;4583;49.796;9.902;2023-06-22T14:01:57;30.30;65.80
9095;DHT22;4583;49.796;9.902;2023-06-22T14:12:03;30.30;65.80
9095;DHT22;4583;49.796;9.902;2023-06-22T14:22:05;30.30;66.60
9095;DHT22;4583;49.796;9.902;2023-06-22T14:32:08;30.10;67.40
9095;DHT22;4583;49.796;9.902;2023-06-22T14:42:10;31.20;66.00
9095;DHT22;4583;49.796;9.902;2023-06-22T14:52:11;32.30;63.80
9095;DHT22;4583;49.796;9.902;2023-06-22T15:02:13;32.40;63.80
9095;DHT22;4583;49.796;9.902;2023-06-22T15:12:15;32.10;64.00
9095;DHT22;4583;49.796;9.902;2023-06-22T15:22:17;33.50;62.30
9095;DHT22;4583;49.796;9.902;2023-06-22T15:32:21;34.10;57.80
9095;DHT22;4583;49.796;9.902;2023-06-22T15:42:23;33.50;57.20
9095;DHT22;4583;49.796;9.902;2023-06-22T15:52:25;33.10;57.20
9095;DHT22;4583;49.796;9.902;2023-06-22T16:02:26;33.00;56.10
9095;DHT22;4583;49.796;9.902;2023-06-22T16:12:30;32.00;56.70
9095;DHT22;4583;49.796;9.902;2023-06-22T16:22:33;31.30;57.00
9095;DHT22;4583;49.796;9.902;2023-06-22T16:32:35;30.80;57.80
9095;DHT22;4583;49.796;9.902;2023-06-22T16:42:36;30.60;56.40
9095;DHT22;4583;49.796;9.902;2023-06-22T16:52:38;30.30;55.90
9095;DHT22;4583;49.796;9.902;2023-06-22T17:02:47;30.10;55.00
9095;DHT22;4583;49.796;9.902;2023-06-22T17:12:49;29.90;55.40
9095;DHT22;4583;49.796;9.902;2023-06-22T17:22:54;29.70;56.70
9095;DHT22;4583;49.796;9.902;2023-06-22T17:32:57;29.50;57.80
9095;DHT22;4583;49.796;9.902;2023-06-22T17:43:03;29.30;58.80
9095;DHT22;4583;49.796;9.902;2023-06-22T17:53:10;29.20;59.20
9095;DHT22;4583;49.796;9.902;2023-06-22T18:03:13;29.10;59.40
9095;DHT22;4583;49.796;9.902;2023-06-22T18:13:15;29.10;59.50
9095;DHT22;4583;49.796;9.902;2023-06-22T18:23:20;29.10;59.70
9095;DHT22;4583;49.796;9.902;2023-06-22T18:33:22;29.00;60.20
9095;DHT22;4583;49.796;9.902;2023-06-22T18:43:24;28.90;61.60
9095;DHT22;4583;49.796;9.902;2023-06-22T18:53:27;28.80;62.80
9095;DHT22;4583;49.796;9.902;2023-06-22T19:03:30;28.60;63.70
9095;DHT22;4583;49.796;9.902;2023-06-22T19:13:33;28.30;66.60
9095;DHT22;4583;49.796;9.902;2023-06-22T19:23:36;27.80;69.60
9095;DHT22;4583;49.796;9.902;2023-06-22T19:33:41;27.50;72.40
9095;DHT22;4583;49.796;9.902;2023-06-22T19:43:43;27.30;74.00
9095;DHT22;4583;49.796;9.902;2023-06-22T19:53:44;27.10;75.10
9095;DHT22;4583;49.796;9.902;2023-06-22T20:03:46;27.00;75.60
9095;DHT22;4583;49.796;9.902;2023-06-22T20:13:49;26.50;80.10
9095;DHT22;4583;49.796;9.902;2023-06-22T20:23:51;25.80;87.70
9095;DHT22;4583;49.796;9.902;2023-06-22T20:34:03;25.10;92.90
9095;DHT22;4583;49.796;9.902;2023-06-22T20:44:05;24.70;95.60
9095;DHT22;4583;49.796;9.902;2023-06-22T20:54:07;24.50;97.20
9095;DHT22;4583;49.796;9.902;2023-06-22T21:04:08;24.40;98.70
9095;DHT22;4583;49.796;9.902;2023-06-22T21:14:10;24.30;99.90
9095;DHT22;4583;49.796;9.902;2023-06-22T21:24:20;24.20;99.90
9095;DHT22;4583;49.796;9.902;2023-06-22T21:34:22;24.40;99.90
9095;DHT22;4583;49.796;9.902;2023-06-22T21:44:24;24.40;99.90
9095;DHT22;4583;49.796;9.902;2023-06-22T21:54:26;24.40;99.90
9095;DHT22;4583;49.796;9.902;2023-06-22T22:04:28;24.30;99.90
9095;DHT22;4583;49.796;9.902;2023-06-22T22:14:29;24.20;99.90
9095;DHT22;4583;49.796;9.902;2023-06-22T22:24:32;24.10;99.90
9095;DHT22;4583;49.796;9.902;2023-06-22T22:34:34;24.10;99.90
9095;DHT22;4583;49.796;9.902;2023-06-22T22:44:35;24.10;99.80
9095;DHT22;4583;49.796;9.902;2023-06-22T22:54:37;24.10;99.40
9095;DHT22;4583;49.796;9.902;2023-06-22T23:04:44;24.00;98.70
9095;DHT22;4583;49.796;9.902;2023-06-22T23:14:45;23.80;97.20
9095;DHT22;4583;49.796;9.902;2023-06-22T23:24:47;23.60;96.60
9095;DHT22;4583;49.796;9.902;2023-06-22T23:34:49;23.50;96.20
9095;DHT22;4583;49.796;9.902;2023-06-22T23:44:51;23.50;95.90
9095;DHT22;4583;49.796;9.902;2023-06-22T23:54:54;23.50;95.60
